createdAt,value
2023-04-15T00:01:11.604Z,3.55
2023-04-15T00:03:39.098Z,3.05
2023-04-15T00:06:06.758Z,3.55
2023-04-15T00:08:34.280Z,4.38
2023-04-15T00:11:03.421Z,4.35
2023-04-15T00:13:40.076Z,3.88
2023-04-15T00:18:35.809Z,3.53
2023-04-15T00:21:12.473Z,5.20
2023-04-15T00:23:39.659Z,3.83
2023-04-15T00:26:08.086Z,3.75
2023-04-15T00:28:35.693Z,3.47
2023-04-15T00:31:02.773Z,3.70
2023-04-15T00:33:29.971Z,3.60
2023-04-15T00:35:56.825Z,2.15
2023-04-15T00:38:24.062Z,3.45
2023-04-15T00:40:51.365Z,1.40
2023-04-15T00:43:18.914Z,2.00
2023-04-15T00:45:48.285Z,1.38
2023-04-15T00:48:16.582Z,1.70
2023-04-15T00:50:44.266Z,1.50
2023-04-15T00:53:11.408Z,1.27
2023-04-15T00:55:38.305Z,1.30
2023-04-15T00:58:05.214Z,1.08
2023-04-15T01:00:32.737Z,1.80
2023-04-15T01:02:59.667Z,1.42
2023-04-15T01:05:27.112Z,0.73
2023-04-15T01:07:55.072Z,0.52
2023-04-15T01:10:22.164Z,0.85
2023-04-15T01:12:48.948Z,0.32
2023-04-15T01:15:16.203Z,0.90
2023-04-15T01:17:43.527Z,1.00
2023-04-15T01:20:10.552Z,0.82
2023-04-15T01:22:38.479Z,0.80
2023-04-15T01:25:10.086Z,0.98
2023-04-15T01:27:40.967Z,1.20
2023-04-15T01:30:08.705Z,0.57
2023-04-15T01:32:35.780Z,0.80
2023-04-15T01:35:02.906Z,0.45
2023-04-15T01:37:30.140Z,0.47
2023-04-15T01:39:58.089Z,0.98
2023-04-15T01:42:24.852Z,0.73
2023-04-15T01:44:52.071Z,0.70
2023-04-15T01:47:18.891Z,0.57
2023-04-15T01:49:45.575Z,1.20
2023-04-15T01:52:12.326Z,1.13
2023-04-15T01:54:39.315Z,2.22
2023-04-15T01:57:06.261Z,2.42
2023-04-15T01:59:33.176Z,1.67
2023-04-15T02:02:00.555Z,1.80
2023-04-15T02:04:28.133Z,1.00
2023-04-15T02:06:55.124Z,1.05
2023-04-15T02:09:21.892Z,1.52
2023-04-15T02:11:49.133Z,1.02
2023-04-15T02:14:16.307Z,2.00
2023-04-15T02:16:43.319Z,1.95
2023-04-15T02:19:10.772Z,1.05
2023-04-15T02:21:37.954Z,1.80
2023-04-15T02:24:05.109Z,2.08
2023-04-15T02:26:35.061Z,1.60
2023-04-15T02:29:01.848Z,2.03
2023-04-15T02:31:28.685Z,1.88
2023-04-15T02:33:55.404Z,0.90
2023-04-15T02:36:22.114Z,1.40
2023-04-15T02:38:48.876Z,1.42
2023-04-15T02:41:15.825Z,1.00
2023-04-15T02:43:42.555Z,0.80
2023-04-15T02:46:12.835Z,1.02
2023-04-15T02:48:39.662Z,1.02
2023-04-15T02:51:19.826Z,1.00
2023-04-15T02:53:47.598Z,1.33
2023-04-15T02:56:15.839Z,1.35
2023-04-15T02:58:44.803Z,1.08
2023-04-15T03:01:11.860Z,0.75
2023-04-15T03:03:38.802Z,1.90
2023-04-15T03:06:05.957Z,1.10
2023-04-15T03:08:32.636Z,1.73
2023-04-15T03:11:00.919Z,1.50
2023-04-15T03:13:27.816Z,1.33
2023-04-15T03:15:54.605Z,1.25
2023-04-15T03:18:21.746Z,1.02
2023-04-15T03:20:48.433Z,1.23
2023-04-15T03:23:15.440Z,1.63
2023-04-15T03:25:42.296Z,1.73
2023-04-15T03:28:08.962Z,1.50
2023-04-15T03:30:35.602Z,1.33
2023-04-15T03:33:02.320Z,1.73
2023-04-15T03:35:29.468Z,1.58
2023-04-15T03:37:56.274Z,2.28
2023-04-15T03:40:23.022Z,1.60
2023-04-15T03:42:49.748Z,1.75
2023-04-15T03:45:16.665Z,2.05
2023-04-15T03:47:43.425Z,1.40
2023-04-15T03:50:10.471Z,1.98
2023-04-15T03:52:37.207Z,1.88
2023-04-15T03:55:04.217Z,2.50
2023-04-15T03:57:31.287Z,2.78
2023-04-15T03:59:58.073Z,3.25
2023-04-15T04:02:24.903Z,2.28
2023-04-15T04:04:51.938Z,2.22
2023-04-15T04:07:18.780Z,1.95
2023-04-15T04:09:47.279Z,1.70
2023-04-15T04:12:14.539Z,1.48
2023-04-15T04:14:41.184Z,1.00
2023-04-15T04:17:08.496Z,1.20
2023-04-15T04:19:35.712Z,1.10
2023-04-15T04:22:02.543Z,1.15
2023-04-15T04:24:29.393Z,1.30
2023-04-15T04:26:57.286Z,0.93
2023-04-15T04:29:24.302Z,1.52
2023-04-15T04:31:51.289Z,1.50
2023-04-15T04:34:18.123Z,1.58
2023-04-15T04:36:44.890Z,1.30
2023-04-15T04:39:11.577Z,1.80
2023-04-15T04:41:38.244Z,1.45
2023-04-15T04:44:04.923Z,2.28
2023-04-15T04:46:31.604Z,1.60
2023-04-15T04:48:58.302Z,1.95
2023-04-15T04:51:25.224Z,2.30
2023-04-15T04:53:51.973Z,1.70
2023-04-15T04:56:18.728Z,1.35
2023-04-15T04:58:45.889Z,2.50
2023-04-15T05:01:13.160Z,1.65
2023-04-15T05:03:40.040Z,1.25
2023-04-15T05:06:08.813Z,1.98
2023-04-15T05:08:36.955Z,2.15
2023-04-15T05:11:05.127Z,1.67
2023-04-15T05:13:31.898Z,2.35
2023-04-15T05:15:58.623Z,1.88
2023-04-15T05:18:25.572Z,2.60
2023-04-15T05:20:52.501Z,2.28
2023-04-15T05:23:19.436Z,1.70
2023-04-15T05:25:46.196Z,2.80
2023-04-15T05:28:12.862Z,3.35
2023-04-15T05:30:40.444Z,3.38
2023-04-15T05:33:07.295Z,2.70
2023-04-15T05:35:34.007Z,4.35
2023-04-15T05:38:00.767Z,3.83
2023-04-15T05:40:28.088Z,3.53
2023-04-15T05:42:54.962Z,2.58
2023-04-15T05:45:21.671Z,2.97
2023-04-15T05:47:50.457Z,3.58
2023-04-15T05:50:17.462Z,3.53
2023-04-15T05:52:44.103Z,3.67
2023-04-15T05:55:10.942Z,3.03
2023-04-15T05:57:37.811Z,2.95
2023-04-15T06:00:06.050Z,2.63
2023-04-15T06:02:32.845Z,3.40
2023-04-15T06:05:00.136Z,2.13
2023-04-15T06:07:26.951Z,2.75
2023-04-15T06:09:54.079Z,2.30
2023-04-15T06:12:20.882Z,1.75
2023-04-15T06:14:47.541Z,2.22
2023-04-15T06:17:15.113Z,2.42
2023-04-15T06:19:41.759Z,2.72
2023-04-15T06:22:09.916Z,3.13
2023-04-15T06:24:37.317Z,4.05
2023-04-15T06:27:04.102Z,2.25
2023-04-15T06:29:30.815Z,1.98
2023-04-15T06:31:57.719Z,2.80
2023-04-15T06:34:24.500Z,2.30
2023-04-15T06:36:51.231Z,2.38
2023-04-15T06:39:17.988Z,1.63
2023-04-15T06:41:44.747Z,2.30
2023-04-15T06:44:11.429Z,1.95
2023-04-15T06:46:38.181Z,2.60
2023-04-15T06:49:05.469Z,1.63
2023-04-15T06:51:32.803Z,2.05
2023-04-15T06:53:59.496Z,2.67
2023-04-15T06:56:26.252Z,2.72
2023-04-15T06:58:52.981Z,2.15
2023-04-15T07:01:20.128Z,2.75
2023-04-15T07:03:47.005Z,2.10
2023-04-15T07:06:13.732Z,2.33
2023-04-15T07:08:40.516Z,2.20
2023-04-15T07:11:07.490Z,2.55
2023-04-15T07:13:34.382Z,2.63
2023-04-15T07:16:01.298Z,2.92
2023-04-15T07:18:28.039Z,2.95
2023-04-15T07:20:54.875Z,3.60
2023-04-15T07:23:21.608Z,2.60
2023-04-15T07:25:48.898Z,2.83
2023-04-15T07:28:15.632Z,2.88
2023-04-15T07:30:42.521Z,1.77
2023-04-15T07:33:09.342Z,3.28
2023-04-15T07:35:36.232Z,2.63
2023-04-15T07:38:02.923Z,2.60
2023-04-15T07:40:29.744Z,3.10
2023-04-15T07:42:58.353Z,2.03
2023-04-15T07:45:25.135Z,2.55
2023-04-15T07:47:52.142Z,2.30
2023-04-15T07:50:19.793Z,2.55
2023-04-15T07:52:46.534Z,2.05
2023-04-15T07:55:13.276Z,3.20
2023-04-15T07:57:40.030Z,2.47
2023-04-15T08:00:07.620Z,1.95
2023-04-15T08:02:36.309Z,2.65
2023-04-15T08:05:04.512Z,2.42
2023-04-15T08:07:31.683Z,1.83
2023-04-15T08:09:58.419Z,2.22
2023-04-15T08:12:25.205Z,1.88
2023-04-15T08:14:52.226Z,1.50
2023-04-15T08:17:20.706Z,2.42
2023-04-15T08:19:48.340Z,1.88
2023-04-15T08:22:18.888Z,1.50
2023-04-15T08:24:46.624Z,2.25
2023-04-15T08:27:13.602Z,2.25
2023-04-15T08:29:40.697Z,2.40
2023-04-15T08:32:07.863Z,2.40
2023-04-15T08:34:34.983Z,1.77
2023-04-15T08:37:01.722Z,1.25
2023-04-15T08:39:28.451Z,1.65
2023-04-15T08:42:03.808Z,1.65
2023-04-15T08:44:37.007Z,1.05
2023-04-15T08:47:07.616Z,1.92
2023-04-15T08:49:39.113Z,1.52
2023-04-15T08:52:06.636Z,1.42
2023-04-15T08:54:34.454Z,1.42
2023-04-15T08:57:02.549Z,1.48
2023-04-15T08:59:30.909Z,2.00
2023-04-15T09:01:58.360Z,1.38
2023-04-15T09:04:25.089Z,1.52
2023-04-15T09:06:52.342Z,1.52
2023-04-15T09:09:19.034Z,1.35
2023-04-15T09:11:45.848Z,1.13
2023-04-15T09:14:13.621Z,1.50
2023-04-15T09:17:02.629Z,1.25
2023-04-15T09:21:59.444Z,0.77
2023-04-15T09:24:37.458Z,1.10
2023-04-15T09:27:04.579Z,0.95
2023-04-15T09:29:31.587Z,1.00
2023-04-15T09:32:10.018Z,1.20
2023-04-15T09:34:37.428Z,1.23
2023-04-15T09:37:04.368Z,1.40
2023-04-15T09:39:48.680Z,0.85
2023-04-15T09:42:17.518Z,0.95
2023-04-15T09:44:44.408Z,1.35
2023-04-15T09:47:27.692Z,1.27
2023-04-15T09:49:58.679Z,1.17
2023-04-15T09:52:26.100Z,1.65
2023-04-15T09:54:58.900Z,2.00
2023-04-15T09:57:25.812Z,1.70
2023-04-15T09:59:52.591Z,1.20
2023-04-15T10:02:23.171Z,1.30
2023-04-15T10:04:51.010Z,1.55
2023-04-15T10:07:20.767Z,0.80
2023-04-15T10:09:49.181Z,1.13
2023-04-15T10:12:20.255Z,1.90
2023-04-15T10:14:56.324Z,1.15
2023-04-15T10:17:26.797Z,1.65
2023-04-15T10:19:54.841Z,1.10
2023-04-15T10:22:23.417Z,0.80
2023-04-15T10:24:51.439Z,1.65
2023-04-15T10:27:18.682Z,0.95
2023-04-15T10:29:46.154Z,1.23
2023-04-15T10:32:13.862Z,1.27
2023-04-15T10:34:41.144Z,1.30
2023-04-15T10:37:11.137Z,1.33
2023-04-15T10:47:07.338Z,0.70
2023-04-15T10:49:34.114Z,1.00
2023-04-15T10:52:01.602Z,0.60
2023-04-15T10:54:28.224Z,0.98
2023-04-15T10:57:01.741Z,0.80
2023-04-15T10:59:38.740Z,0.80
2023-04-15T11:02:07.667Z,0.85
2023-04-15T11:04:53.481Z,1.00
2023-04-15T11:07:36.027Z,1.20
2023-04-15T11:10:03.620Z,1.20
2023-04-15T11:12:37.311Z,1.40
2023-04-15T11:15:30.581Z,1.35
2023-04-15T11:17:58.809Z,1.80
2023-04-15T11:20:26.031Z,1.45
2023-04-15T11:23:13.926Z,1.50
2023-04-15T11:25:41.829Z,2.47
2023-04-15T11:28:08.689Z,2.28
2023-04-15T11:30:37.406Z,1.38
2023-04-15T11:33:09.802Z,2.10
2023-04-15T11:35:36.839Z,1.63
2023-04-15T11:38:10.123Z,2.65
2023-04-15T11:40:38.333Z,3.00
2023-04-15T11:43:05.395Z,2.97
2023-04-15T11:45:32.347Z,2.83
2023-04-15T11:48:13.519Z,2.28
2023-04-15T11:50:41.165Z,2.28
2023-04-15T11:53:10.957Z,3.05
2023-04-15T11:55:47.029Z,2.60
2023-04-15T11:58:16.877Z,2.63
2023-04-15T12:00:52.503Z,2.33
2023-04-15T12:03:21.443Z,2.22
2023-04-15T12:06:11.640Z,2.38
2023-04-15T12:08:48.413Z,2.28
2023-04-15T12:11:16.676Z,2.03
2023-04-15T12:13:48.370Z,1.88
2023-04-15T16:43:49.613Z,4.93
2023-04-15T16:46:16.337Z,6.10
2023-04-15T16:48:43.075Z,7.97
2023-04-15T16:51:09.848Z,7.22
2023-04-15T16:53:36.579Z,7.97
2023-04-15T16:56:03.266Z,7.78
2023-04-15T16:58:29.949Z,7.10
2023-04-15T17:00:56.942Z,7.07
2023-04-15T17:03:23.823Z,7.22
2023-04-15T17:05:50.745Z,7.32
2023-04-15T17:08:17.686Z,7.20
2023-04-15T17:10:45.190Z,6.88
2023-04-15T17:13:11.991Z,7.82
2023-04-15T17:15:38.806Z,6.15
2023-04-15T17:18:05.648Z,7.47
2023-04-15T17:20:32.388Z,7.15
2023-04-15T17:23:00.407Z,7.43
2023-04-15T17:25:27.131Z,6.88
2023-04-15T17:27:53.866Z,6.00
2023-04-15T17:30:20.744Z,6.97
2023-04-15T17:32:47.518Z,5.07
2023-04-15T17:35:14.318Z,6.78
2023-04-15T17:37:41.120Z,7.30
2023-04-15T17:40:09.002Z,5.38
2023-04-15T17:42:35.836Z,5.13
2023-04-15T17:45:02.680Z,5.93
2023-04-15T17:47:29.380Z,6.30
2023-04-15T17:49:56.082Z,8.05
2023-04-15T17:52:22.851Z,6.45
2023-04-15T17:54:49.671Z,5.90
2023-04-15T17:57:16.729Z,6.15
2023-04-15T17:59:45.069Z,8.30
2023-04-15T18:02:12.014Z,7.35
2023-04-15T18:04:39.867Z,6.75
2023-04-15T18:07:06.752Z,6.60
2023-04-15T18:09:33.602Z,7.05
2023-04-15T18:12:00.329Z,5.85
2023-04-15T18:14:34.102Z,6.07
2023-04-15T18:17:02.643Z,5.57
2023-04-15T18:19:30.260Z,8.07
2023-04-15T18:21:57.130Z,7.15
2023-04-15T18:24:23.827Z,8.00
2023-04-15T18:26:50.744Z,8.15
2023-04-15T18:29:18.572Z,7.07
2023-04-15T18:31:45.343Z,4.80
2023-04-15T18:34:12.009Z,5.72
2023-04-15T18:36:38.713Z,6.15
2023-04-15T18:39:05.882Z,6.32
2023-04-15T18:41:32.790Z,6.47
2023-04-15T18:43:59.483Z,6.50
2023-04-15T18:46:26.319Z,6.60
2023-04-15T18:48:52.998Z,6.80
2023-04-15T18:51:19.708Z,7.20
2023-04-15T18:53:46.409Z,5.78
2023-04-15T18:56:13.099Z,7.35
2023-04-15T18:59:09.022Z,7.25
2023-04-15T19:01:26.642Z,6.18
2023-04-15T19:03:53.544Z,7.88
2023-04-15T19:06:20.527Z,8.52
2023-04-15T19:08:47.187Z,7.28
2023-04-15T19:11:14.236Z,6.45
2023-04-15T19:13:41.054Z,7.03
2023-04-15T19:16:07.920Z,6.57
2023-04-15T19:18:34.696Z,7.95
2023-04-15T19:21:01.610Z,7.97
2023-04-15T19:23:28.278Z,8.68
2023-04-15T19:25:54.944Z,7.90
2023-04-15T19:28:21.686Z,6.95
2023-04-15T19:30:48.432Z,8.30
2023-04-15T19:33:15.392Z,8.40
2023-04-15T19:35:42.146Z,7.35
2023-04-15T19:38:08.812Z,9.00
2023-04-15T19:40:35.723Z,7.68
2023-04-15T19:43:02.367Z,7.28
2023-04-15T19:45:29.134Z,6.07
2023-04-15T19:47:56.068Z,7.90
2023-04-15T19:50:26.251Z,6.22
2023-04-15T19:52:53.722Z,6.60
2023-04-15T19:55:20.561Z,8.05
2023-04-15T19:57:47.345Z,5.57
2023-04-15T20:00:14.462Z,6.88
2023-04-15T20:02:41.360Z,7.45
2023-04-15T20:05:09.952Z,8.65
2023-04-15T20:07:36.905Z,8.30
2023-04-15T20:10:12.054Z,7.20
2023-04-15T20:12:49.934Z,8.30
2023-04-15T20:15:19.806Z,7.30
2023-04-15T20:17:46.649Z,8.10
2023-04-15T20:20:13.528Z,7.55
2023-04-15T20:22:41.131Z,6.88
2023-04-15T20:25:08.749Z,7.68
2023-04-15T20:27:35.538Z,6.82
2023-04-15T20:30:04.438Z,5.72
2023-04-15T20:32:35.685Z,6.80
2023-04-15T20:35:04.313Z,6.10
2023-04-15T20:37:33.068Z,5.85
2023-04-15T20:40:00.925Z,5.90
2023-04-15T20:42:27.810Z,5.60
2023-04-15T20:44:54.580Z,5.30
2023-04-15T20:47:21.466Z,5.35
2023-04-15T20:49:48.307Z,6.20
2023-04-15T20:52:15.050Z,6.10
2023-04-15T20:54:41.775Z,6.03
2023-04-15T20:57:08.615Z,6.47
2023-04-15T20:59:35.937Z,5.55
2023-04-15T21:02:02.776Z,6.60
2023-04-15T21:04:29.543Z,5.85
2023-04-15T21:06:56.339Z,5.70
2023-04-15T21:09:23.197Z,6.40
2023-04-15T21:14:19.622Z,6.45
2023-04-15T21:16:46.570Z,6.82
2023-04-15T21:19:13.377Z,6.82
2023-04-15T21:21:40.094Z,5.47
2023-04-15T21:24:07.878Z,5.10
2023-04-15T21:26:36.112Z,5.55
2023-04-15T21:29:03.299Z,5.85
2023-04-15T21:31:30.579Z,5.00
2023-04-15T21:33:57.443Z,4.97
2023-04-15T21:36:24.234Z,5.13
2023-04-15T21:38:50.928Z,5.30
2023-04-15T21:41:17.667Z,5.47
2023-04-15T21:43:44.494Z,5.60
2023-04-15T21:46:22.978Z,5.78
2023-04-15T21:48:53.058Z,5.03
2023-04-15T21:51:19.852Z,5.38
2023-04-15T21:53:46.679Z,4.88
2023-04-15T21:56:13.400Z,5.82
2023-04-15T21:58:40.229Z,6.22
2023-04-15T22:01:07.010Z,5.30
2023-04-15T22:03:35.175Z,5.15
2023-04-15T22:06:03.514Z,5.25
2023-04-15T22:08:36.112Z,5.18
2023-04-15T22:11:09.084Z,5.88
2023-04-15T22:13:36.186Z,5.35
2023-04-15T22:16:03.090Z,4.88
2023-04-15T22:18:29.839Z,4.47
2023-04-15T22:20:56.827Z,5.05
2023-04-15T22:23:23.557Z,4.90
2023-04-15T22:25:50.320Z,4.40
2023-04-15T22:28:17.291Z,3.97
2023-04-15T22:30:44.014Z,4.25
2023-04-15T22:33:11.214Z,3.85
2023-04-15T22:35:38.368Z,4.40
2023-04-15T22:38:05.173Z,5.25
2023-04-15T22:40:32.125Z,5.25
2023-04-15T22:42:58.897Z,4.38
2023-04-15T22:45:26.031Z,3.83
2023-04-15T22:47:53.042Z,3.53
2023-04-15T22:50:20.113Z,4.05
2023-04-15T22:52:48.237Z,3.60
2023-04-15T22:55:15.642Z,4.30
2023-04-15T22:57:42.504Z,3.00
2023-04-15T23:00:09.597Z,3.60
2023-04-15T23:02:36.361Z,3.38
2023-04-15T23:05:11.968Z,2.85
2023-04-15T23:07:40.370Z,3.20
2023-04-15T23:10:08.094Z,4.05
2023-04-15T23:12:34.977Z,3.45
2023-04-15T23:15:03.349Z,3.25
2023-04-15T23:17:30.043Z,3.17
2023-04-15T23:19:56.836Z,3.00
2023-04-15T23:22:23.677Z,3.42
2023-04-15T23:24:50.351Z,2.60
2023-04-15T23:27:19.012Z,2.83
2023-04-15T23:29:46.172Z,3.55
2023-04-15T23:32:12.874Z,3.60
2023-04-15T23:34:39.607Z,3.33
2023-04-15T23:37:06.287Z,4.28
2023-04-15T23:39:33.124Z,3.33
2023-04-15T23:41:59.981Z,4.90
2023-04-15T23:44:27.141Z,4.50
2023-04-15T23:46:53.873Z,4.90
2023-04-15T23:49:20.717Z,4.93
2023-04-15T23:51:47.844Z,4.35
2023-04-15T23:54:15.316Z,5.68
2023-04-15T23:56:42.074Z,4.70
2023-04-15T23:59:09.127Z,5.07
